createdAt,value
2023-05-10T00:00:37.173Z,97
2023-05-10T00:05:43.274Z,98
2023-05-10T00:10:49.354Z,99
2023-05-10T00:15:55.551Z,98
2023-05-10T00:21:01.543Z,98.5
2023-05-10T00:26:07.643Z,98.5
2023-05-10T00:31:13.742Z,97
2023-05-10T00:36:19.820Z,95
2023-05-10T00:41:25.922Z,92.5
2023-05-10T00:46:32.079Z,92
2023-05-10T00:51:38.116Z,94
2023-05-10T00:56:55.434Z,93.5
2023-05-10T01:02:01.607Z,93
2023-05-10T01:07:07.653Z,92.5
2023-05-10T01:12:13.802Z,94.5
2023-05-10T01:17:19.856Z,96
2023-05-10T01:22:26.076Z,96
2023-05-10T01:27:32.025Z,93.5
2023-05-10T01:32:38.181Z,98.5
2023-05-10T01:37:44.204Z,92
2023-05-10T01:42:50.276Z,88
2023-05-10T01:47:56.418Z,89
2023-05-10T01:53:02.484Z,91
2023-05-10T01:58:08.565Z,88.5
2023-05-10T02:03:14.696Z,84.5
2023-05-10T02:08:20.749Z,91.5
2023-05-10T02:13:26.956Z,92
2023-05-10T02:18:33.077Z,93.5
2023-05-10T02:23:39.044Z,93
2023-05-10T02:28:45.129Z,92.5
2023-05-10T02:34:02.450Z,94.5
2023-05-10T02:39:08.524Z,94
2023-05-10T02:44:14.634Z,94
2023-05-10T02:49:20.706Z,93
2023-05-10T02:54:26.822Z,92.5
2023-05-10T02:59:32.894Z,92
2023-05-10T03:04:39.033Z,91.5
2023-05-10T03:09:45.086Z,93
2023-05-10T03:14:51.199Z,92.5
2023-05-10T03:20:02.923Z,93.5
2023-05-10T03:25:09.047Z,96
2023-05-10T03:30:15.324Z,93
2023-05-10T03:35:21.201Z,89.5
2023-05-10T03:40:27.294Z,90
2023-05-10T03:45:33.405Z,91.5
2023-05-10T03:50:39.527Z,94
2023-05-10T03:55:45.583Z,91
2023-05-10T04:00:51.691Z,92.5
2023-05-10T04:06:03.466Z,93.5
2023-05-10T04:11:09.498Z,92.5
2023-05-10T04:16:15.627Z,90.5
2023-05-10T04:21:21.693Z,90.5
2023-05-10T04:26:27.799Z,91.5
2023-05-10T04:31:33.966Z,93
2023-05-10T04:36:39.995Z,93.5
2023-05-10T04:41:46.094Z,92
2023-05-10T04:46:52.184Z,92.5
2023-05-10T04:51:58.232Z,93.5
2023-05-10T04:57:04.353Z,92.5
2023-05-10T05:02:10.456Z,92
2023-05-10T05:07:16.533Z,92
2023-05-10T05:12:22.677Z,91
2023-05-10T05:17:28.749Z,89.5
2023-05-10T05:22:34.793Z,86.5
2023-05-10T05:27:40.904Z,82.5
2023-05-10T05:32:47.060Z,75.5
2023-05-10T05:37:53.105Z,77.5
2023-05-10T05:43:04.841Z,79
2023-05-10T05:48:10.951Z,81
2023-05-10T05:53:17.034Z,81
2023-05-10T05:58:23.130Z,82.5
2023-05-10T06:03:29.337Z,81.5
2023-05-10T06:08:35.308Z,83
2023-05-10T06:13:41.422Z,87
2023-05-10T06:18:47.500Z,88
2023-05-10T06:23:53.586Z,83
2023-05-10T06:28:59.689Z,84.5
2023-05-10T06:34:05.788Z,84
2023-05-10T06:39:11.890Z,87
2023-05-10T06:44:17.979Z,87.5
2023-05-10T06:49:27.244Z,88
2023-05-10T06:54:30.158Z,86
2023-05-10T06:59:36.325Z,84.5
2023-05-10T07:04:42.368Z,83.5
2023-05-10T07:09:48.457Z,84.5
2023-05-10T07:14:54.566Z,89
2023-05-10T07:20:06.291Z,82
2023-05-10T07:25:12.394Z,79.5
2023-05-10T07:30:18.463Z,80.5
2023-05-10T07:35:24.581Z,85.5
2023-05-10T07:40:30.680Z,88.5
2023-05-10T07:45:36.770Z,86
2023-05-10T07:50:42.834Z,86
2023-05-10T07:55:48.938Z,87
2023-05-10T08:00:55.032Z,85
2023-05-10T08:06:01.124Z,81.5
2023-05-10T08:11:07.237Z,84.5
2023-05-10T08:16:13.377Z,80.5
2023-05-10T08:21:19.437Z,83.5
2023-05-10T08:26:25.506Z,81.5
2023-05-10T08:31:31.689Z,85
2023-05-10T08:36:37.676Z,85.5
2023-05-10T08:41:43.813Z,85.5
2023-05-10T08:46:49.874Z,81
2023-05-10T08:51:55.973Z,78.5
2023-05-10T08:57:07.716Z,82
2023-05-10T09:02:13.810Z,84.5
2023-05-10T09:07:19.882Z,85.5
2023-05-10T09:12:25.999Z,88
2023-05-10T09:17:32.100Z,87
2023-05-10T09:22:38.208Z,87
2023-05-10T09:27:45.272Z,84.5
2023-05-10T09:32:50.378Z,91.5
2023-05-10T09:37:56.518Z,85
2023-05-10T09:43:02.545Z,86.5
2023-05-10T09:48:08.741Z,83.5
2023-05-10T09:53:14.735Z,81.5
2023-05-10T09:58:20.830Z,84
2023-05-10T10:03:27.796Z,81
2023-05-10T10:08:33.048Z,78
2023-05-10T10:13:39.122Z,79
2023-05-10T10:18:45.220Z,77
2023-05-10T10:23:51.340Z,72
2023-05-10T10:28:57.410Z,70
2023-05-10T10:34:09.154Z,74
2023-05-10T10:39:15.221Z,71.5
2023-05-10T10:44:21.349Z,73.5
2023-05-10T10:49:27.427Z,72.5
2023-05-10T10:54:33.531Z,73.5
2023-05-10T10:59:39.628Z,75
2023-05-10T11:04:45.818Z,74
2023-05-10T11:09:51.793Z,77
2023-05-10T11:14:57.897Z,78.5
2023-05-10T11:20:03.982Z,82.5
2023-05-10T11:25:10.140Z,80.5
2023-05-10T11:30:16.550Z,77.5
2023-05-10T11:35:22.269Z,75.5
2023-05-10T11:40:28.365Z,73.5
2023-05-10T11:45:34.497Z,70
2023-05-10T11:50:40.587Z,77
2023-05-10T11:55:46.645Z,72.5
2023-05-10T12:00:52.728Z,62
2023-05-10T12:05:58.831Z,70.5
2023-05-10T12:11:16.158Z,70.5
2023-05-10T12:16:22.266Z,68
2023-05-10T12:21:28.370Z,74.5
2023-05-10T12:26:34.488Z,71
2023-05-10T12:31:40.596Z,73.5
2023-05-10T12:36:46.645Z,72.5
2023-05-10T12:41:52.752Z,69.5
2023-05-10T12:46:58.837Z,65
2023-05-10T12:52:04.911Z,68.5
2023-05-10T12:57:11.035Z,71
2023-05-10T13:02:17.117Z,72
2023-05-10T13:07:23.213Z,68.5
2023-05-10T13:12:29.281Z,69
2023-05-10T13:17:35.419Z,68.5
2023-05-10T13:22:41.473Z,62.5
2023-05-10T13:27:47.600Z,62
2023-05-10T13:32:53.672Z,66
2023-05-10T13:37:59.759Z,66.5
2023-05-10T13:43:05.903Z,65
2023-05-10T13:48:17.587Z,59
2023-05-10T13:53:23.677Z,61.5
2023-05-10T13:58:29.772Z,65
2023-05-10T14:03:35.903Z,62.5
2023-05-10T14:08:41.969Z,63
2023-05-10T14:13:48.035Z,60
2023-05-10T14:18:54.217Z,61.5
2023-05-10T14:24:00.262Z,61.5
2023-05-10T14:29:06.342Z,63
2023-05-10T14:34:12.440Z,63
2023-05-10T14:39:18.538Z,59
2023-05-10T14:44:24.630Z,60
2023-05-10T14:49:30.728Z,60.5
2023-05-10T14:54:36.819Z,59.5
2023-05-10T14:59:42.926Z,62
2023-05-10T15:04:49.011Z,62
2023-05-10T15:09:55.101Z,60.5
2023-05-10T15:15:01.221Z,62
2023-05-10T15:20:07.304Z,59.5
2023-05-10T15:25:19.160Z,62
2023-05-10T15:30:25.109Z,64
2023-05-10T15:35:31.201Z,65.5
2023-05-10T15:40:37.312Z,65
2023-05-10T15:45:43.399Z,64
2023-05-10T15:50:49.478Z,64
2023-05-10T15:55:55.578Z,63.5
2023-05-10T16:01:01.677Z,61.5
2023-05-10T16:06:07.756Z,64
2023-05-10T16:11:13.868Z,65
2023-05-10T16:16:20.012Z,65
2023-05-10T16:21:26.105Z,66
2023-05-10T16:26:32.140Z,67
2023-05-10T16:31:38.245Z,64.5
2023-05-10T16:36:44.312Z,65.5
2023-05-10T16:41:50.428Z,66.5
2023-05-10T16:46:56.520Z,66
2023-05-10T16:52:02.612Z,69.5
2023-05-10T16:57:08.699Z,66.5
2023-05-10T17:02:26.210Z,68.5
2023-05-10T17:07:32.127Z,66
2023-05-10T17:12:38.211Z,66
2023-05-10T17:17:44.345Z,68.5
2023-05-10T17:22:50.402Z,67
2023-05-10T17:27:56.500Z,67.5
2023-05-10T17:33:02.638Z,69.5
2023-05-10T17:38:08.686Z,69.5
2023-05-10T17:43:14.803Z,69
2023-05-10T17:48:20.872Z,70.5
2023-05-10T17:53:26.978Z,71
2023-05-10T17:58:33.054Z,70
2023-05-10T18:03:39.148Z,70
2023-05-10T18:08:45.234Z,71.5
2023-05-10T18:13:51.328Z,69.5
2023-05-10T18:18:57.481Z,71
2023-05-10T18:24:03.510Z,71
2023-05-10T18:29:09.612Z,72.5
2023-05-10T18:34:15.730Z,70
2023-05-10T18:39:27.494Z,74.5
2023-05-10T18:44:33.558Z,71
2023-05-10T18:49:39.650Z,75.5
2023-05-10T18:54:45.728Z,74
2023-05-10T18:59:51.825Z,73
2023-05-10T19:04:57.966Z,76.5
2023-05-10T19:10:04.028Z,76
2023-05-10T19:15:10.143Z,77.5
2023-05-10T19:20:21.842Z,78.5
2023-05-10T19:25:28.002Z,79
2023-05-10T19:30:34.019Z,79.5
2023-05-10T19:35:40.152Z,76.5
2023-05-10T19:40:46.753Z,78
2023-05-10T19:45:52.299Z,77
2023-05-10T19:50:58.391Z,73.5
2023-05-10T19:56:04.488Z,76
2023-05-10T20:01:10.609Z,76.5
2023-05-10T20:06:16.695Z,78
2023-05-10T20:11:39.614Z,78
2023-05-10T20:16:45.853Z,78
2023-05-10T20:21:51.766Z,79.5
2023-05-10T20:26:57.865Z,80.5
2023-05-10T20:32:03.963Z,79.5
2023-05-10T20:37:10.046Z,79
2023-05-10T20:42:16.154Z,78.5
2023-05-10T20:47:22.265Z,78.5
2023-05-10T20:52:28.335Z,79.5
2023-05-10T20:57:34.433Z,81
2023-05-10T21:02:40.579Z,81
2023-05-10T21:07:46.646Z,79
2023-05-10T21:12:52.716Z,78
2023-05-10T21:17:58.882Z,80.5
2023-05-10T21:23:04.924Z,81
2023-05-10T21:28:11.053Z,82
2023-05-10T21:33:17.107Z,81.5
2023-05-10T21:38:23.174Z,82.5
2023-05-10T21:43:29.293Z,82.5
2023-05-10T21:48:41.073Z,83.5
2023-05-10T21:53:47.124Z,82.5
2023-05-10T21:58:53.216Z,83
2023-05-10T22:03:59.295Z,82.5
2023-05-10T22:09:05.431Z,83.5
2023-05-10T22:14:11.594Z,83.5
2023-05-10T22:19:17.604Z,84.5
2023-05-10T22:24:23.700Z,83.5
2023-05-10T22:29:29.793Z,83.5
2023-05-10T22:34:35.891Z,84
2023-05-10T22:39:41.959Z,82.5
2023-05-10T22:44:48.071Z,79.5
2023-05-10T22:49:54.160Z,81.5
2023-05-10T22:55:00.259Z,83
2023-05-10T23:00:06.380Z,83
2023-05-10T23:05:12.607Z,83
2023-05-10T23:10:18.638Z,82.5
2023-05-10T23:15:24.648Z,83
2023-05-10T23:20:30.735Z,82
2023-05-10T23:25:42.479Z,82.5
2023-05-10T23:30:48.568Z,81.5
2023-05-10T23:35:55.655Z,83
2023-05-10T23:41:00.766Z,83.5
2023-05-10T23:46:06.850Z,83.5
2023-05-10T23:51:12.916Z,82.5
2023-05-10T23:56:18.992Z,82.5
